Decoded Metar for YTNK (TENNANT CREEK in _UNIDENTIFIED) (IATA:TCA) | Meteo·Mobile Aviation Weather
aviador You're here:

YTNK Decoded Metar

TENNANT CREEK in _UNIDENTIFIED
Report Time2018-11-19 02:00:00
UTC Time2018-11-19 02:38:20
Flight Rules vfr VFR
Wind020° at 13 kt
W.Decomp.*RWY 07: 7.6 kt HW 10.5 kt LCW
RWY 29: 0.9 kt HW 13.0 kt RCW
W.Rank020° ranks 15
Current wind is above 020° avg. (7.0)
Visibility9999 m
Phenomena:N/A
Clouds:N/A
Expected CloudBase > 7,600 ft AGL from Temp-Dew spread
CeilingNone
Temp32°C (ISA +19)
Dew Point13°C (31% RH)
Heat Index30.9°C
AAT28.2°C
QNH1012 hPa
Density Alt3,688 ft
Elevation1,237 ft
Report Wrong Elevation
Raw Report
YTNK 190200Z AUTO 02013KT 9999 // NCD 32/13 Q1012=

Extra information for YTNK:More info

Metar Taf Metar & Taf Last 4 Metars F.Rules Stats Wind Profile Meteogram Temp Stats Airport Information Weather charts Add Link Nearby VenuesMetar ALERT Operation Metar Decoded Social comments